Time;durP1;ratioP1;P1;durP2;ratioP2;P2;SDS_P1;SDS_P2;PMS_P1;PMS_P2;Temp;Humidity;BMP_temperature;BMP_pressure;BME280_temperature;BME280_humidity;BME280_pressure;Samples;Min_cycle;Max_cycle;Signal;HPM_P1;HPM_P2
2023/11/23 00:01:50;;;;;;;0.13;0.13;;;;;;;11.47;77.29;102486.38;5091704;28;20028;-80
2023/11/23 00:04:17;;;;;;;0.15;0.15;;;;;;;11.47;77.74;102494.34;5087336;28;20033;-82
2023/11/23 00:06:43;;;;;;;0.15;0.15;;;;;;;11.58;77.15;102489.06;5092969;28;20039;-81
2023/11/23 00:09:10;;;;;;;33.13;2.65;;;;;;;11.60;77.54;102481.97;5098595;28;20039;-81
2023/11/23 00:11:36;;;;;;;0.20;0.20;;;;;;;11.65;77.03;102470.47;5108374;28;20042;-80
2023/11/23 00:14:02;;;;;;;0.75;0.75;;;;;;;11.64;77.03;102474.00;5098184;28;20066;-81
2023/11/23 00:16:28;;;;;;;0.10;0.10;;;;;;;11.62;76.65;102467.81;5097630;28;20119;-80
2023/11/23 00:18:54;;;;;;;0.22;0.22;;;;;;;11.68;77.37;102468.72;5092819;28;20023;-83
2023/11/23 00:21:20;;;;;;;0.90;0.90;;;;;;;11.59;77.20;102462.50;5101804;28;20028;-81
2023/11/23 00:23:47;;;;;;;0.10;0.10;;;;;;;11.57;77.01;102461.59;5094488;28;20095;-82
2023/11/23 00:26:13;;;;;;;0.20;0.20;;;;;;;11.63;77.00;102458.09;5091260;28;20112;-82
2023/11/23 00:28:39;;;;;;;0.20;0.20;;;;;;;11.69;76.98;102465.16;5104692;28;20024;-82
2023/11/23 00:31:06;;;;;;;0.40;0.40;;;;;;;11.68;76.82;102460.75;5098872;28;20028;-82
2023/11/23 00:33:32;;;;;;;0.68;0.68;;;;;;;11.70;76.93;102456.31;5101364;28;20032;-81
2023/11/23 00:35:58;;;;;;;1.75;1.38;;;;;;;11.73;76.96;102459.88;5099789;28;20051;-80
2023/11/23 00:38:24;;;;;;;0.20;0.20;;;;;;;11.83;76.59;102455.44;5108127;28;20020;-80
2023/11/23 00:40:50;;;;;;;0.20;0.20;;;;;;;11.84;76.67;102459.88;5108712;28;20070;-80
2023/11/23 00:43:17;;;;;;;0.30;0.30;;;;;;;11.81;76.24;102457.22;5106281;28;20047;-82
2023/11/23 00:45:43;;;;;;;0.10;0.10;;;;;;;11.76;76.87;102453.66;5108195;28;20043;-81
2023/11/23 00:48:09;;;;;;;0.43;0.43;;;;;;;11.85;76.49;102451.03;5100208;28;20495;-82
2023/11/23 00:50:35;;;;;;;0.10;0.10;;;;;;;11.84;76.61;102441.28;5095847;28;20063;-82
2023/11/23 00:53:01;;;;;;;0.10;0.10;;;;;;;11.84;76.58;102437.72;5090962;28;20021;-83
2023/11/23 00:55:29;;;;;;;0.30;0.30;;;;;;;11.93;76.16;102443.06;5095670;28;20058;-81
2023/11/23 00:57:56;;;;;;;0.22;0.22;;;;;;;11.92;76.46;102442.16;5100379;28;20920;-83
2023/11/23 01:00:22;;;;;;;0.20;0.20;;;;;;;12.01;76.14;102441.31;5107017;28;20084;-82
2023/11/23 01:02:50;;;;;;;0.10;0.10;;;;;;;12.09;76.46;102442.19;5101052;28;20078;-80
2023/11/23 01:05:18;;;;;;;0.20;0.20;;;;;;;12.10;76.19;102441.31;5095785;28;20020;-79
2023/11/23 01:07:45;;;;;;;0.10;0.10;;;;;;;12.14;76.68;102439.56;5109543;28;20023;-79
2023/11/23 01:10:13;;;;;;;0.10;0.10;;;;;;;12.17;77.45;102434.22;5105816;28;20032;-80
2023/11/23 01:12:39;;;;;;;0.10;0.10;;;;;;;12.30;76.53;102435.09;5109859;28;20031;-81
2023/11/23 01:15:06;;;;;;;0.10;0.10;;;;;;;12.38;77.32;102435.09;5103906;28;20059;-81
2023/11/23 01:17:32;;;;;;;0.10;0.10;;;;;;;12.45;77.38;102431.53;5107030;28;20032;-81
2023/11/23 01:19:58;;;;;;;0.10;0.10;;;;;;;12.43;77.71;102431.50;5097669;28;20534;-81
2023/11/23 01:22:24;;;;;;;0.10;0.10;;;;;;;12.59;77.60;102424.38;5109668;28;20091;-83
2023/11/23 01:24:51;;;;;;;0.10;0.10;;;;;;;12.69;77.24;102427.91;5104081;28;20027;-79
2023/11/23 01:27:17;;;;;;;0.10;0.10;;;;;;;12.77;76.68;102417.22;5104227;28;20043;-80
2023/11/23 01:29:43;;;;;;;0.10;0.10;;;;;;;12.83;76.55;102422.53;5112471;28;20034;-80
2023/11/23 01:32:09;;;;;;;1.90;1.00;;;;;;;12.81;76.24;102416.34;5102133;28;20398;-80
2023/11/23 01:34:35;;;;;;;0.50;0.50;;;;;;;12.78;75.91;102409.28;5101657;28;20071;-79
2023/11/23 01:37:01;;;;;;;0.10;0.10;;;;;;;12.81;76.02;102412.78;5109392;28;20024;-81
2023/11/23 01:39:27;;;;;;;0.17;0.17;;;;;;;12.77;75.87;102411.91;5106487;28;20035;-80
2023/11/23 01:41:54;;;;;;;0.13;0.13;;;;;;;12.74;75.88;102412.81;5108305;28;20398;-81
2023/11/23 01:44:21;;;;;;;0.10;0.10;;;;;;;12.77;75.74;102407.50;5109412;28;20543;-80
2023/11/23 01:46:48;;;;;;;0.20;0.20;;;;;;;12.79;75.22;102405.69;5108996;28;20031;-78
2023/11/23 01:49:16;;;;;;;0.17;0.17;;;;;;;12.74;74.83;102406.63;5101963;28;20403;-79
2023/11/23 01:51:42;;;;;;;2.15;1.02;;;;;;;12.64;74.67;102404.91;5104180;28;20062;-79
2023/11/23 01:54:08;;;;;;;1.85;1.70;;;;;;;12.58;75.58;102401.34;5111947;28;20032;-80
2023/11/23 01:56:35;;;;;;;0.73;0.73;;;;;;;12.58;75.20;102414.63;5107529;28;20032;-81
2023/11/23 01:59:03;;;;;;;0.17;0.17;;;;;;;12.55;75.29;102416.44;5104632;28;20016;-82
2023/11/23 02:01:29;;;;;;;0.30;0.30;;;;;;;12.58;74.89;102411.09;5110317;28;20067;-80
2023/11/23 02:03:56;;;;;;;0.10;0.10;;;;;;;12.53;74.64;102413.75;5104106;28;20074;-80
2023/11/23 02:06:22;;;;;;;0.10;0.10;;;;;;;12.59;74.53;102419.06;5103063;28;20491;-81
2023/11/23 02:08:49;;;;;;;0.10;0.10;;;;;;;12.55;74.95;102412.00;5110626;28;20024;-81
2023/11/23 02:11:16;;;;;;;0.10;0.10;;;;;;;12.45;75.06;102413.78;5104492;28;20157;-80
2023/11/23 02:13:43;;;;;;;0.20;0.20;;;;;;;12.40;74.85;102418.25;5112678;28;20057;-81
2023/11/23 02:16:09;;;;;;;0.10;0.10;;;;;;;12.39;74.87;102420.91;5108952;28;20080;-80
2023/11/23 02:18:37;;;;;;;0.10;0.10;;;;;;;12.42;75.32;102420.88;5110898;28;20104;-79
2023/11/23 02:21:04;;;;;;;0.20;0.20;;;;;;;12.38;75.31;102419.13;5104239;28;20057;-80
2023/11/23 02:23:31;;;;;;;0.95;0.95;;;;;;;12.38;75.19;102413.81;5103546;28;20134;-80
2023/11/23 02:25:57;;;;;;;0.20;0.20;;;;;;;12.35;75.57;102413.81;5103340;28;20035;-81
2023/11/23 02:28:24;;;;;;;0.10;0.10;;;;;;;12.29;75.58;102409.41;5107405;28;20039;-80
2023/11/23 02:30:50;;;;;;;0.20;0.20;;;;;;;12.28;75.89;102408.50;5107461;28;20372;-81
2023/11/23 02:33:17;;;;;;;11.77;2.70;;;;;;;12.31;75.90;102404.97;5103982;28;20036;-81
2023/11/23 02:35:43;;;;;;;0.20;0.20;;;;;;;12.34;75.63;102402.31;5100505;28;20115;-81
2023/11/23 02:38:10;;;;;;;0.20;0.20;;;;;;;12.30;75.77;102405.88;5099988;28;20020;-81
2023/11/23 02:40:36;;;;;;;0.15;0.15;;;;;;;12.30;75.34;102398.75;5100710;28;20054;-81
2023/11/23 02:43:06;;;;;;;1.10;0.60;;;;;;;12.35;75.61;102401.41;5104741;28;20083;-81
2023/11/23 02:45:32;;;;;;;0.10;0.10;;;;;;;12.34;75.82;102396.13;5104403;28;20028;-82
2023/11/23 02:47:59;;;;;;;0.10;0.10;;;;;;;12.30;75.12;102390.78;5106692;28;20079;-81
2023/11/23 02:50:25;;;;;;;0.10;0.10;;;;;;;12.29;75.09;102404.09;5111864;28;20495;-81
2023/11/23 02:52:52;;;;;;;0.10;0.10;;;;;;;12.28;75.39;102392.56;5103657;28;20035;-81
2023/11/23 02:55:18;;;;;;;0.20;0.20;;;;;;;12.21;76.12;102400.56;5102406;28;20115;-81
2023/11/23 02:57:45;;;;;;;0.10;0.10;;;;;;;12.33;75.96;102394.34;5105944;28;20035;-80
2023/11/23 03:00:12;;;;;;;0.22;0.22;;;;;;;12.34;75.60;102401.44;5102638;28;20040;-81
2023/11/23 03:02:38;;;;;;;0.10;0.10;;;;;;;12.29;75.25;102398.78;5102167;28;20059;-81
2023/11/23 03:05:05;;;;;;;0.10;0.10;;;;;;;12.32;74.91;102392.56;5101972;28;20028;-81
2023/11/23 03:07:31;;;;;;;0.10;0.10;;;;;;;12.20;75.33;102396.13;5102783;28;20028;-81
2023/11/23 03:09:58;;;;;;;0.10;0.10;;;;;;;12.24;75.27;102392.59;5103540;28;20023;-80
2023/11/23 03:12:26;;;;;;;0.35;0.35;;;;;;;12.29;75.42;102397.00;5100050;28;20055;-80
2023/11/23 03:14:52;;;;;;;0.13;0.13;;;;;;;12.27;75.34;102406.75;5099346;28;20189;-81
2023/11/23 03:17:19;;;;;;;0.10;0.10;;;;;;;12.24;74.89;102416.50;5107419;28;20165;-81
2023/11/23 03:19:45;;;;;;;0.20;0.20;;;;;;;12.25;74.84;102395.25;5104003;28;20028;-81
2023/11/23 03:22:11;;;;;;;0.17;0.17;;;;;;;12.27;75.00;102400.53;5105635;28;20058;-80
2023/11/23 03:24:37;;;;;;;0.45;0.45;;;;;;;12.23;75.10;102404.09;5104370;28;20020;-84
2023/11/23 03:27:03;;;;;;;0.10;0.10;;;;;;;12.28;75.24;102394.34;5106455;28;20027;-81
2023/11/23 03:29:29;;;;;;;0.10;0.10;;;;;;;12.28;74.67;102397.88;5104196;28;20047;-81
2023/11/23 03:31:56;;;;;;;0.10;0.10;;;;;;;12.25;74.93;102402.31;5101182;28;20028;-81
2023/11/23 03:34:22;;;;;;;0.10;0.10;;;;;;;12.28;74.61;102391.69;5105875;28;20035;-81
2023/11/23 03:36:48;;;;;;;0.10;0.10;;;;;;;12.28;75.22;102392.56;5099077;28;20118;-80
2023/11/23 03:39:14;;;;;;;0.95;0.95;;;;;;;12.32;75.32;102389.91;5101029;28;20032;-81
2023/11/23 03:41:40;;;;;;;0.10;0.10;;;;;;;12.27;74.39;102373.97;5103962;28;20100;-81
2023/11/23 03:44:06;;;;;;;0.13;0.13;;;;;;;12.25;74.74;102370.41;5100240;28;20058;-81
2023/11/23 03:46:33;;;;;;;0.20;0.20;;;;;;;12.23;74.63;102382.84;5099128;28;20042;-81
2023/11/23 03:48:59;;;;;;;0.10;0.10;;;;;;;12.24;74.61;102380.19;5099987;28;20370;-81
2023/11/23 03:51:25;;;;;;;0.10;0.10;;;;;;;12.14;75.39;102386.41;5098346;28;20040;-81
2023/11/23 03:53:51;;;;;;;0.20;0.20;;;;;;;12.25;74.69;102387.28;5098892;28;20031;-81
2023/11/23 03:56:18;;;;;;;0.20;0.20;;;;;;;12.23;74.77;102388.16;5101831;28;20032;-80
2023/11/23 03:58:44;;;;;;;1.27;1.17;;;;;;;12.21;75.07;102384.63;5102561;28;20032;-81
2023/11/23 04:01:10;;;;;;;0.65;0.65;;;;;;;12.20;75.28;102391.72;5101175;28;20051;-80
2023/11/23 04:03:44;;;;;;;0.03;0.03;;;;;;;12.14;75.36;102376.66;5103369;28;20054;-81
2023/11/23 04:06:11;;;;;;;0.15;0.15;;;;;;;12.21;75.54;102380.19;5102588;28;20108;-81
2023/11/23 04:08:39;;;;;;;0.20;0.20;;;;;;;12.28;75.13;102378.41;5104498;28;20083;-79
2023/11/23 04:11:05;;;;;;;0.10;0.10;;;;;;;12.28;75.23;102379.28;5107661;28;20175;-81
2023/11/23 04:13:31;;;;;;;3.55;1.85;;;;;;;12.30;75.52;102369.53;5111044;28;20032;-81
2023/11/23 04:15:57;;;;;;;0.10;0.10;;;;;;;12.30;75.07;102377.50;5107532;28;20056;-80
2023/11/23 04:18:24;;;;;;;0.10;0.10;;;;;;;12.25;75.41;102375.72;5111230;28;20492;-81
2023/11/23 04:20:50;;;;;;;0.10;0.10;;;;;;;12.31;75.33;102386.34;5109166;28;20059;-81
2023/11/23 04:23:16;;;;;;;0.20;0.20;;;;;;;12.30;74.83;102389.94;5105514;28;20043;-81
2023/11/23 04:25:42;;;;;;;0.32;0.28;;;;;;;12.25;75.09;102384.63;5104370;28;20031;-82
2023/11/23 04:28:09;;;;;;;0.10;0.10;;;;;;;12.23;75.39;102383.72;5102660;28;20031;-81
2023/11/23 04:30:35;;;;;;;0.20;0.20;;;;;;;12.20;75.38;102378.44;5102248;28;20049;-81
2023/11/23 04:33:01;;;;;;;0.10;0.10;;;;;;;12.21;75.34;102373.97;5101598;28;20024;-80
2023/11/23 04:35:27;;;;;;;0.10;0.10;;;;;;;12.15;76.28;102385.53;5109793;28;20024;-81
2023/11/23 04:37:54;;;;;;;0.20;0.20;;;;;;;12.21;75.89;102380.19;5111777;28;20509;-81
2023/11/23 04:40:20;;;;;;;0.10;0.10;;;;;;;12.25;75.53;102378.38;5104800;28;20044;-81
2023/11/23 04:42:46;;;;;;;0.10;0.10;;;;;;;12.22;75.51;102384.59;5113089;28;20051;-80
2023/11/23 04:45:12;;;;;;;0.10;0.10;;;;;;;12.26;75.66;102389.03;5109962;28;20020;-81
2023/11/23 04:47:38;;;;;;;1.98;0.55;;;;;;;12.24;75.82;102384.63;5106868;28;20103;-82
2023/11/23 04:50:05;;;;;;;0.10;0.10;;;;;;;12.26;75.68;102378.41;5108220;28;20023;-82
2023/11/23 04:52:31;;;;;;;0.28;0.28;;;;;;;12.28;76.01;102381.94;5108278;28;20031;-81
2023/11/23 04:54:57;;;;;;;0.10;0.10;;;;;;;12.18;76.37;102380.19;5104470;28;20039;-81
2023/11/23 04:57:24;;;;;;;0.10;0.10;;;;;;;12.34;75.30;102375.72;5104397;28;20032;-81
2023/11/23 04:59:50;;;;;;;0.98;0.98;;;;;;;12.26;75.50;102381.06;5103972;28;20402;-81
2023/11/23 05:02:17;;;;;;;0.65;0.65;;;;;;;12.23;75.89;102378.41;5114159;28;20031;-81
2023/11/23 05:04:43;;;;;;;0.15;0.15;;;;;;;12.22;76.04;102376.63;5110522;28;20024;-80
2023/11/23 05:07:10;;;;;;;0.10;0.10;;;;;;;12.25;75.63;102368.66;5110250;28;20035;-80
2023/11/23 05:09:36;;;;;;;0.10;0.10;;;;;;;12.24;75.18;102376.66;5111833;28;20023;-80
2023/11/23 05:12:02;;;;;;;0.00;0.00;;;;;;;12.27;75.23;102372.22;5106534;28;20115;-81
2023/11/23 05:14:28;;;;;;;0.20;0.20;;;;;;;12.21;75.27;102380.19;5105890;28;20088;-82
2023/11/23 05:16:54;;;;;;;0.10;0.10;;;;;;;12.16;75.38;102373.97;5108647;28;20031;-82
2023/11/23 05:19:20;;;;;;;0.15;0.15;;;;;;;12.14;75.90;102370.47;5109480;28;20442;-81
2023/11/23 05:21:47;;;;;;;0.10;0.10;;;;;;;12.16;75.54;102365.13;5103754;28;20119;-82
2023/11/23 05:24:13;;;;;;;0.10;0.10;;;;;;;12.24;75.49;102363.38;5115910;28;20024;-82
2023/11/23 05:26:39;;;;;;;0.10;0.10;;;;;;;12.18;75.57;102364.25;5112328;28;20032;-81
2023/11/23 05:29:06;;;;;;;1.15;0.90;;;;;;;12.18;75.73;102372.22;5103570;28;20066;-81
2023/11/23 05:31:32;;;;;;;0.20;0.20;;;;;;;12.16;76.27;102363.34;5101535;28;20024;-82
2023/11/23 05:33:58;;;;;;;0.57;0.57;;;;;;;12.22;75.61;102367.78;5104179;28;20494;-82
2023/11/23 05:36:24;;;;;;;0.10;0.10;;;;;;;12.23;75.92;102357.16;5104730;28;20028;-81
2023/11/23 05:38:50;;;;;;;0.10;0.10;;;;;;;12.23;75.90;102367.78;5104482;28;20039;-82
2023/11/23 05:41:16;;;;;;;0.10;0.10;;;;;;;12.19;76.74;102355.38;5106302;28;20040;-81
2023/11/23 05:43:43;;;;;;;0.00;0.00;;;;;;;12.30;75.87;102342.97;5107099;28;20054;-82
2023/11/23 05:46:09;;;;;;;0.15;0.15;;;;;;;12.17;76.15;102346.53;5104032;28;20048;-82
2023/11/23 05:48:35;;;;;;;0.20;0.20;;;;;;;12.24;76.48;102348.28;5109994;28;20032;-80
2023/11/23 05:51:01;;;;;;;0.10;0.10;;;;;;;12.34;76.07;102353.59;5111491;28;20034;-80
2023/11/23 05:53:27;;;;;;;1.27;0.77;;;;;;;12.35;75.84;102352.69;5104719;28;20032;-82
2023/11/23 05:55:54;;;;;;;0.10;0.10;;;;;;;12.25;76.04;102350.06;5105614;28;20028;-81
2023/11/23 05:58:20;;;;;;;0.20;0.20;;;;;;;12.35;75.74;102347.38;5107904;28;20486;-81
2023/11/23 06:00:46;;;;;;;0.10;0.10;;;;;;;12.31;75.70;102338.50;5108503;28;20027;-82
2023/11/23 06:03:12;;;;;;;0.43;0.43;;;;;;;12.32;76.10;102336.75;5106255;28;20396;-81
2023/11/23 06:05:38;;;;;;;0.10;0.10;;;;;;;12.34;75.83;102337.66;5103556;28;20076;-81
2023/11/23 06:08:04;;;;;;;0.10;0.10;;;;;;;12.28;75.49;102339.41;5107608;28;20028;-80
2023/11/23 06:10:33;;;;;;;0.10;0.10;;;;;;;12.36;75.05;102338.50;5112611;28;20518;-80
2023/11/23 06:12:59;;;;;;;2.22;2.13;;;;;;;12.30;76.13;102337.63;5100796;28;20028;-81
2023/11/23 06:15:25;;;;;;;1.55;1.45;;;;;;;12.27;76.00;102337.66;5100197;28;20024;-80
2023/11/23 06:17:51;;;;;;;0.80;0.75;;;;;;;12.33;75.17;102326.13;5102126;28;20517;-81
2023/11/23 06:20:18;;;;;;;0.17;0.17;;;;;;;12.32;75.48;102334.97;5106606;28;20028;-80
2023/11/23 06:22:44;;;;;;;0.10;0.10;;;;;;;12.30;75.92;102327.00;5110017;28;20087;-80
2023/11/23 06:25:12;;;;;;;0.10;0.10;;;;;;;12.34;75.87;102327.03;5101135;28;20055;-81
2023/11/23 06:27:38;;;;;;;0.10;0.10;;;;;;;12.39;75.58;102333.19;5100224;28;20039;-80
2023/11/23 06:30:05;;;;;;;0.10;0.10;;;;;;;12.30;75.74;102334.97;5099616;28;20047;-81
2023/11/23 06:32:31;;;;;;;0.17;0.17;;;;;;;12.21;76.05;102336.78;5096774;28;20548;-81
2023/11/23 06:34:58;;;;;;;0.82;0.63;;;;;;;12.33;76.29;102331.44;5102557;28;20103;-80
2023/11/23 06:37:24;;;;;;;0.10;0.10;;;;;;;12.21;76.26;102320.84;5103396;28;20486;-80
2023/11/23 06:39:52;;;;;;;0.17;0.17;;;;;;;12.37;75.79;102316.34;5099648;28;20092;-80
2023/11/23 06:42:20;;;;;;;0.10;0.10;;;;;;;12.35;76.07;102319.03;5103585;28;20399;-81
2023/11/23 06:44:46;;;;;;;0.10;0.10;;;;;;;12.45;75.59;102318.09;5103437;28;20498;-81
2023/11/23 06:47:14;;;;;;;0.10;0.10;;;;;;;12.41;75.73;102318.09;5102623;28;20093;-78
2023/11/23 06:49:41;;;;;;;0.10;0.10;;;;;;;12.40;75.21;102317.22;5099844;28;20070;-80
2023/11/23 06:52:07;;;;;;;0.15;0.15;;;;;;;12.33;76.01;102319.94;5102275;28;20099;-82
2023/11/23 06:54:33;;;;;;;0.20;0.20;;;;;;;12.20;76.67;102312.00;5109085;28;20398;-81
2023/11/23 06:56:59;;;;;;;0.15;0.15;;;;;;;12.35;76.24;102304.84;5098768;28;20036;-82
2023/11/23 06:59:25;;;;;;;0.17;0.17;;;;;;;12.33;76.40;102314.63;5100807;28;20032;-82
2023/11/23 07:01:51;;;;;;;0.10;0.10;;;;;;;12.32;76.20;102311.06;5101370;28;20073;-83
2023/11/23 07:04:17;;;;;;;0.10;0.10;;;;;;;12.46;75.59;102324.28;5103693;28;20064;-80
2023/11/23 07:06:43;;;;;;;0.10;0.10;;;;;;;12.45;75.87;102319.88;5105501;28;20088;-81
2023/11/23 07:09:13;;;;;;;0.15;0.15;;;;;;;12.46;75.94;102308.34;5099798;28;20479;-82
2023/11/23 07:11:40;;;;;;;0.10;0.10;;;;;;;12.43;75.99;102308.34;5091946;28;20024;-81
2023/11/23 07:14:06;;;;;;;0.30;0.30;;;;;;;12.44;75.84;102300.38;5100223;28;20139;-81
2023/11/23 07:16:32;;;;;;;0.63;0.63;;;;;;;12.37;76.42;102297.75;5098027;28;20108;-81
2023/11/23 07:18:58;;;;;;;0.10;0.10;;;;;;;12.32;77.00;102296.88;5108450;28;20023;-81
2023/11/23 07:21:24;;;;;;;0.00;0.00;;;;;;;12.45;76.11;102298.63;5099134;28;20440;-80
2023/11/23 07:23:50;;;;;;;0.10;0.10;;;;;;;12.43;76.18;102305.69;5097446;28;20043;-80
2023/11/23 07:26:17;;;;;;;0.10;0.10;;;;;;;12.43;76.11;102311.03;5095800;28;20038;-81
2023/11/23 07:28:43;;;;;;;0.40;0.40;;;;;;;12.51;76.31;102314.53;5099311;28;20032;-80
2023/11/23 07:31:09;;;;;;;0.30;0.30;;;;;;;12.55;76.08;102337.56;5097936;28;20027;-81
2023/11/23 07:33:36;;;;;;;0.00;0.00;;;;;;;12.55;76.29;102332.22;5099332;28;20028;-81
2023/11/23 07:36:04;;;;;;;0.10;0.10;;;;;;;12.55;76.15;102337.56;5101193;28;20036;-80
2023/11/23 07:38:30;;;;;;;0.10;0.10;;;;;;;12.52;76.25;102326.91;5111493;28;20016;-80
2023/11/23 07:40:58;;;;;;;0.20;0.20;;;;;;;12.47;76.29;102318.09;5106655;28;20032;-80
2023/11/23 07:43:24;;;;;;;0.63;0.43;;;;;;;12.57;76.17;102318.94;5100488;28;20043;-81
2023/11/23 07:45:50;;;;;;;0.10;0.10;;;;;;;12.64;76.21;102314.47;5098186;28;20028;-80
2023/11/23 07:48:18;;;;;;;0.28;0.28;;;;;;;12.56;76.07;102315.41;5094537;28;20040;-82
2023/11/23 07:50:44;;;;;;;0.10;0.10;;;;;;;12.56;76.38;102307.41;5099889;28;20411;-81
2023/11/23 07:53:10;;;;;;;0.10;0.10;;;;;;;12.61;76.33;102316.25;5111231;28;20024;-83
2023/11/23 07:55:37;;;;;;;0.10;0.10;;;;;;;12.66;76.03;102304.69;5107799;28;20081;-83
2023/11/23 07:58:03;;;;;;;0.65;0.45;;;;;;;12.68;76.37;102298.47;5101874;28;20038;-81
2023/11/23 08:00:29;;;;;;;0.10;0.10;;;;;;;12.60;76.51;102301.19;5096897;28;20506;-79
2023/11/23 08:02:55;;;;;;;5.55;2.58;;;;;;;12.74;75.81;102302.91;5096178;28;20093;-78
2023/11/23 08:05:22;;;;;;;0.10;0.10;;;;;;;12.76;75.82;102301.09;5097402;28;20027;-79
2023/11/23 08:07:50;;;;;;;0.10;0.10;;;;;;;12.76;76.06;102298.44;5098461;28;20028;-79
2023/11/23 08:10:16;;;;;;;0.20;0.20;;;;;;;12.78;76.19;102302.88;5099394;28;20024;-79
2023/11/23 08:12:43;;;;;;;0.38;0.38;;;;;;;12.86;76.45;102305.50;5097750;28;20464;-79
2023/11/23 08:15:10;;;;;;;0.10;0.10;;;;;;;12.87;76.18;102296.63;5087442;28;20506;-80
2023/11/23 08:17:37;;;;;;;0.10;0.10;;;;;;;12.89;76.63;102308.09;5098719;28;20036;-80
2023/11/23 08:20:09;;;;;;;0.10;0.10;;;;;;;13.13;76.15;102313.28;5100148;28;20024;-80
2023/11/23 08:22:36;;;;;;;1.55;1.45;;;;;;;13.08;75.82;102324.88;5101745;28;20020;-80
2023/11/23 08:25:02;;;;;;;0.10;0.10;;;;;;;13.25;76.27;102313.19;5099830;28;20034;-80
2023/11/23 08:27:28;;;;;;;0.10;0.10;;;;;;;13.27;75.58;102306.97;5100196;28;20037;-80
2023/11/23 08:29:55;;;;;;;0.10;0.10;;;;;;;13.45;75.47;102293.56;5098921;28;20109;-80
2023/11/23 08:32:21;;;;;;;0.10;0.10;;;;;;;13.50;75.27;102265.97;5101138;28;20062;-80
2023/11/23 08:34:48;;;;;;;0.85;0.85;;;;;;;13.50;75.17;102255.34;5102413;28;20054;-80
2023/11/23 08:37:33;;;;;;;0.13;0.13;;;;;;;13.53;75.05;102250.00;5100845;28;20055;-80
2023/11/23 08:39:59;;;;;;;0.08;0.08;;;;;;;13.51;74.75;102274.88;5099585;28;20035;-81
2023/11/23 08:42:25;;;;;;;0.10;0.10;;;;;;;13.54;74.84;102282.81;5099415;28;20035;-79
2023/11/23 08:44:51;;;;;;;0.22;0.22;;;;;;;13.56;74.44;102276.56;5099751;28;20106;-79
2023/11/23 08:47:17;;;;;;;0.10;0.10;;;;;;;13.66;74.45;102285.38;5102759;28;20028;-79
2023/11/23 08:49:43;;;;;;;0.17;0.17;;;;;;;13.61;74.11;102280.97;5114124;28;20028;-78
2023/11/23 08:52:09;;;;;;;0.75;0.75;;;;;;;13.73;74.02;102271.09;5109433;28;20036;-78
2023/11/23 08:54:36;;;;;;;0.10;0.10;;;;;;;13.65;73.70;102266.75;5104849;28;20036;-79
2023/11/23 08:57:03;;;;;;;0.40;0.40;;;;;;;13.73;73.39;102260.44;5106251;28;20055;-77
2023/11/23 08:59:29;;;;;;;0.10;0.10;;;;;;;13.76;73.45;102262.19;5099317;28;20096;-77
2023/11/23 09:01:55;;;;;;;0.10;0.10;;;;;;;13.81;73.34;102260.34;5097143;28;20503;-77
2023/11/23 09:04:23;;;;;;;0.10;0.10;;;;;;;13.94;73.45;102270.88;5099604;28;20048;-79
2023/11/23 09:06:49;;;;;;;0.30;0.30;;;;;;;14.00;73.46;102255.69;5097390;28;20022;-77
2023/11/23 09:09:15;;;;;;;0.20;0.20;;;;;;;13.94;72.85;102245.09;5102450;28;20054;-77
2023/11/23 09:11:41;;;;;;;1.33;1.25;;;;;;;13.98;72.76;102240.63;5103491;28;20066;-77
2023/11/23 09:14:09;;;;;;;0.17;0.17;;;;;;;14.15;73.49;102254.63;5101606;28;20032;-82
2023/11/23 09:16:35;;;;;;;0.10;0.10;;;;;;;14.15;72.43;102265.28;5095091;28;20032;-78
2023/11/23 09:19:01;;;;;;;0.43;0.40;;;;;;;14.18;72.30;102254.59;5096855;28;20077;-81
2023/11/23 09:21:27;;;;;;;0.25;0.25;;;;;;;14.23;71.85;102258.09;5096415;28;20016;-78
2023/11/23 09:23:53;;;;;;;0.10;0.10;;;;;;;14.19;71.90;102256.38;5096384;28;20450;-78
2023/11/23 09:26:20;;;;;;;0.00;0.00;;;;;;;14.29;72.17;102248.25;5093481;28;20024;-78
2023/11/23 09:28:46;;;;;;;1.35;1.10;;;;;;;14.38;72.18;102253.44;5097680;28;20035;-80
2023/11/23 09:31:13;;;;;;;0.10;0.10;;;;;;;14.39;71.02;102233.88;5100016;28;20036;-80
2023/11/23 09:33:39;;;;;;;1.15;1.08;;;;;;;14.41;71.17;102229.41;5101605;28;20031;-79
2023/11/23 09:36:06;;;;;;;0.00;0.00;;;;;;;14.52;71.38;102221.28;5097316;28;20040;-80
2023/11/23 09:38:32;;;;;;;0.10;0.10;;;;;;;14.54;71.25;102230.09;5097056;28;20075;-79
2023/11/23 09:40:59;;;;;;;0.10;0.10;;;;;;;14.59;70.59;102222.03;5096930;28;20039;-79
2023/11/23 09:43:25;;;;;;;0.10;0.10;;;;;;;14.65;70.37;102227.31;5098319;28;20035;-79
2023/11/23 09:45:52;;;;;;;1.30;1.27;;;;;;;14.68;69.87;102211.28;5093904;28;20032;-80
2023/11/23 09:48:21;;;;;;;0.63;0.63;;;;;;;14.65;69.81;102201.53;5096358;28;20085;-80
2023/11/23 09:50:47;;;;;;;0.13;0.13;;;;;;;14.76;69.26;102208.50;5098268;28;20039;-79
2023/11/23 09:53:14;;;;;;;0.03;0.03;;;;;;;14.72;69.56;102191.66;5088464;28;20123;-80
2023/11/23 09:55:41;;;;;;;0.10;0.10;;;;;;;14.72;69.55;102186.31;5097675;28;20032;-80
2023/11/23 09:58:07;;;;;;;0.10;0.10;;;;;;;14.76;69.31;102193.34;5098409;28;20051;-80
2023/11/23 10:00:35;;;;;;;0.10;0.10;;;;;;;14.84;69.36;102186.13;5096560;28;20078;-80
2023/11/23 10:03:06;;;;;;;0.03;0.03;;;;;;;14.81;69.25;102194.16;5095209;28;20092;-81
2023/11/23 10:05:33;;;;;;;0.53;0.53;;;;;;;14.87;68.28;102199.41;5096636;28;20523;-79
2023/11/23 10:08:00;;;;;;;0.00;0.00;;;;;;;14.86;68.65;102191.44;5093494;28;20080;-79
2023/11/23 10:10:27;;;;;;;0.10;0.10;;;;;;;14.75;68.62;102207.59;5096892;28;20038;-81
2023/11/23 10:12:55;;;;;;;0.10;0.10;;;;;;;14.85;68.67;102203.91;5097778;28;20020;-81
2023/11/23 10:15:23;;;;;;;0.55;0.55;;;;;;;14.88;68.32;102193.16;5098921;28;20405;-81
2023/11/23 10:17:49;;;;;;;0.10;0.10;;;;;;;15.02;67.99;102206.28;5096062;28;20035;-80
2023/11/23 10:20:15;;;;;;;0.20;0.20;;;;;;;15.04;68.19;102204.47;5096993;28;20036;-81
2023/11/23 10:28:00;;;;;;;0.00;0.00;;;;;;;14.74;69.46;102191.63;5061395;28;20410;-80
2023/11/23 10:30:28;;;;;;;4.18;0.73;;;;;;;14.79;69.40;102188.00;5054268;28;20036;-80
2023/11/23 10:32:55;;;;;;;0.20;0.20;;;;;;;14.75;69.10;102185.38;5053529;28;20049;-80
2023/11/23 10:35:23;;;;;;;0.55;0.55;;;;;;;14.71;69.29;102195.22;5053079;28;20029;-80
2023/11/23 10:37:53;;;;;;;0.15;0.15;;;;;;;14.83;68.86;102187.03;5052061;28;20025;-81
2023/11/23 10:40:21;;;;;;;0.03;0.03;;;;;;;14.95;69.24;102185.06;5046587;28;20079;-80
2023/11/23 10:42:51;;;;;;;0.03;0.03;;;;;;;14.75;68.69;102174.72;5051583;28;20036;-80
2023/11/23 10:45:20;;;;;;;0.10;0.10;;;;;;;14.84;68.61;102174.56;5055139;28;20024;-81
2023/11/23 10:47:50;;;;;;;0.25;0.25;;;;;;;14.88;68.60;102163.81;5051750;28;20025;-81
2023/11/23 10:50:19;;;;;;;0.00;0.00;;;;;;;14.82;68.51;102171.91;5052239;28;20104;-81
2023/11/23 10:52:46;;;;;;;0.10;0.10;;;;;;;14.89;68.20;102156.66;5052402;28;20084;-81
2023/11/23 10:55:12;;;;;;;0.10;0.10;;;;;;;14.99;68.40;102158.28;5051794;28;20037;-81
2023/11/23 10:57:42;;;;;;;0.73;0.73;;;;;;;14.89;68.58;102146.00;5053031;28;20017;-81
2023/11/23 11:00:12;;;;;;;0.38;0.38;;;;;;;14.92;68.75;102129.09;5052776;28;20021;-81
2023/11/23 11:02:40;;;;;;;0.10;0.10;;;;;;;14.91;68.37;102120.19;5050625;28;20025;-81
2023/11/23 11:05:25;;;;;;;0.03;0.03;;;;;;;14.94;68.88;102124.56;5051114;28;20033;-80
2023/11/23 11:08:07;;;;;;;0.10;0.10;;;;;;;15.01;68.15;102113.75;5050087;28;20518;-81
2023/11/23 11:13:21;;;;;;;0.30;0.30;;;;;;;14.97;68.42;102098.72;5113508;27;20387;-80
2023/11/23 11:16:03;;;;;;;0.17;0.17;;;;;;;15.04;68.22;102096.81;5112824;28;20039;-81
2023/11/23 11:18:32;;;;;;;0.10;0.10;;;;;;;15.03;68.06;102079.06;5109857;28;20492;-81
2023/11/23 11:26:27;;;;;;;0.10;0.10;;;;;;;15.15;67.89;102049.47;5092347;27;20397;-80
2023/11/23 11:29:02;;;;;;;0.10;0.10;;;;;;;15.03;68.30;102073.72;5086917;28;20031;-80
2023/11/23 11:34:22;;;;;;;0.10;0.10;;;;;;;15.17;68.04;102066.31;5095369;27;20341;-81
2023/11/23 11:37:05;;;;;;;0.00;0.00;;;;;;;15.25;68.16;102073.28;5093466;28;20028;-81
2023/11/23 11:39:37;;;;;;;2.85;1.00;;;;;;;15.16;67.89;102075.22;5089097;28;20036;-80